Time;durP1;ratioP1;P1;durP2;ratioP2;P2;SDS_P1;SDS_P2;PMS_P1;PMS_P2;Temp;Humidity;BMP_temperature;BMP_pressure;BME280_temperature;BME280_humidity;BME280_pressure;Samples;Min_cycle;Max_cycle;Signal;HPM_P1;HPM_P2
2022/12/24 00:00:58;;;;;;;5.43;1.60;;;;;;;10.39;100.00;97571.88;5073579;28;20225;-71
2022/12/24 00:03:24;;;;;;;7.03;2.00;;;;;;;10.23;100.00;97577.84;5073681;28;20221;-70
2022/12/24 00:05:51;;;;;;;3.40;1.50;;;;;;;10.34;100.00;97573.59;5073263;28;20216;-70
2022/12/24 00:08:17;;;;;;;6.57;1.50;;;;;;;10.32;100.00;97571.16;5073531;28;20308;-70
2022/12/24 00:10:44;;;;;;;4.60;1.57;;;;;;;10.41;100.00;97574.31;5073188;28;20204;-70
2022/12/24 00:13:10;;;;;;;4.50;1.70;;;;;;;10.35;100.00;97572.53;5073438;28;20211;-71
2022/12/24 00:15:37;;;;;;;3.47;1.53;;;;;;;10.59;100.00;97574.22;5073485;28;20236;-71
2022/12/24 00:18:03;;;;;;;3.37;1.43;;;;;;;10.71;100.00;97569.69;5073443;28;20204;-70
2022/12/24 00:20:29;;;;;;;5.20;1.57;;;;;;;10.74;100.00;97570.06;5073086;28;20544;-70
2022/12/24 00:22:56;;;;;;;5.90;1.70;;;;;;;10.82;100.00;97576.88;5072909;28;20212;-71
2022/12/24 00:25:22;;;;;;;5.87;1.70;;;;;;;10.93;100.00;97577.91;5073441;28;20205;-70
2022/12/24 00:27:49;;;;;;;7.63;1.50;;;;;;;11.05;100.00;97574.19;5073042;28;20210;-71
2022/12/24 00:30:15;;;;;;;4.57;1.30;;;;;;;11.04;100.00;97580.56;5073065;28;20205;-71
2022/12/24 00:32:41;;;;;;;5.03;1.50;;;;;;;11.02;100.00;97580.78;5072973;28;20228;-71
2022/12/24 00:35:08;;;;;;;6.20;1.63;;;;;;;11.05;100.00;97566.22;5072955;28;20221;-70
2022/12/24 00:37:34;;;;;;;5.63;1.60;;;;;;;11.14;100.00;97575.47;5073322;28;20209;-70
2022/12/24 00:40:01;;;;;;;5.03;1.70;;;;;;;11.04;100.00;97586.69;5073023;28;20208;-71
2022/12/24 00:42:27;;;;;;;6.13;1.50;;;;;;;11.03;100.00;97582.41;5073225;28;20224;-71
2022/12/24 00:44:53;;;;;;;3.93;1.60;;;;;;;11.16;100.00;97599.97;5073255;28;20197;-71
2022/12/24 00:47:20;;;;;;;6.00;1.70;;;;;;;10.99;100.00;97589.22;5073218;28;20208;-70
2022/12/24 00:49:46;;;;;;;6.30;1.83;;;;;;;10.91;100.00;97586.91;5073192;28;20207;-70
2022/12/24 00:52:12;;;;;;;4.73;1.57;;;;;;;10.68;100.00;97594.09;5073081;28;20231;-71
2022/12/24 00:54:39;;;;;;;5.83;1.73;;;;;;;10.50;100.00;97594.19;5073115;28;20217;-71
2022/12/24 00:57:05;;;;;;;5.60;1.67;;;;;;;10.38;100.00;97596.00;5073155;28;20201;-71
2022/12/24 00:59:31;;;;;;;6.43;1.73;;;;;;;10.19;100.00;97610.41;5073139;28;20205;-70
2022/12/24 01:01:58;;;;;;;4.07;1.43;;;;;;;10.13;100.00;97609.47;5073011;28;20232;-70
2022/12/24 01:07:08;;;;;;;4.50;1.60;;;;;;;10.09;100.00;97623.44;5072683;28;20215;-71
2022/12/24 01:09:35;;;;;;;7.17;1.63;;;;;;;10.20;100.00;97638.59;5072622;28;20216;-71
2022/12/24 01:12:01;;;;;;;6.33;1.80;;;;;;;10.22;100.00;97642.66;5072853;28;20568;-71
2022/12/24 01:14:27;;;;;;;5.40;1.50;;;;;;;10.21;100.00;97648.19;5072920;28;20311;-71
2022/12/24 01:16:54;;;;;;;5.30;1.80;;;;;;;10.27;100.00;97655.25;5072937;28;20200;-70
2022/12/24 01:19:20;;;;;;;5.17;1.70;;;;;;;10.24;100.00;97655.72;5073081;28;20205;-71
2022/12/24 01:21:46;;;;;;;6.07;1.70;;;;;;;10.21;100.00;97650.84;5072783;28;20241;-71
2022/12/24 01:24:14;;;;;;;2.90;1.10;;;;;;;10.10;100.00;97659.59;5074145;28;20209;-70
2022/12/24 01:26:41;;;;;;;3.77;1.47;;;;;;;10.02;100.00;97665.16;5076348;28;20209;-71
2022/12/24 01:29:07;;;;;;;3.47;1.30;;;;;;;9.95;100.00;97667.09;5076348;28;20209;-70
2022/12/24 01:31:34;;;;;;;8.83;2.23;;;;;;;9.92;100.00;97689.59;5076300;28;20234;-71
2022/12/24 01:34:00;;;;;;;5.40;1.50;;;;;;;9.98;100.00;97683.41;5075955;28;20232;-70
2022/12/24 01:36:27;;;;;;;4.33;1.60;;;;;;;9.93;100.00;97685.91;5076542;28;20212;-71
2022/12/24 01:38:53;;;;;;;5.77;1.40;;;;;;;10.17;100.00;97713.41;5076259;28;20632;-70
2022/12/24 01:44:39;;;;;;;7.00;1.87;;;;;;;10.24;100.00;97708.84;5075959;28;20538;-70
2022/12/24 01:47:28;;;;;;;8.37;2.10;;;;;;;10.06;100.00;97704.38;5068483;28;20205;-70
2022/12/24 01:50:01;;;;;;;8.63;2.33;;;;;;;10.05;100.00;97721.31;5074939;28;20212;-70
2022/12/24 01:52:31;;;;;;;8.47;2.40;;;;;;;9.95;100.00;97728.97;5075934;28;20233;-70
2022/12/24 01:55:18;;;;;;;9.73;2.57;;;;;;;9.97;100.00;97731.41;5075966;28;20220;-70
2022/12/24 01:57:53;;;;;;;12.20;2.70;;;;;;;10.01;100.00;97732.59;5075638;28;20189;-70
2022/12/24 02:00:19;;;;;;;6.50;2.17;;;;;;;9.90;100.00;97739.47;5075955;28;20218;-70
2022/12/24 02:02:49;;;;;;;10.10;2.17;;;;;;;9.87;100.00;97750.50;5075724;28;20224;-70
2022/12/24 02:05:27;;;;;;;11.83;2.83;;;;;;;9.97;100.00;97747.34;5075736;28;20207;-70
2022/12/24 02:07:53;;;;;;;9.47;2.53;;;;;;;9.99;100.00;97763.88;5075779;28;20564;-70
2022/12/24 02:10:19;;;;;;;10.60;2.23;;;;;;;9.87;100.00;97763.00;5075709;28;20209;-70
2022/12/24 02:12:47;;;;;;;8.37;2.00;;;;;;;9.90;100.00;97758.06;5075539;28;20231;-70
2022/12/24 02:15:16;;;;;;;13.17;2.20;;;;;;;9.82;100.00;97757.53;5075212;28;20232;-71
2022/12/24 02:17:54;;;;;;;11.30;2.60;;;;;;;9.73;100.00;97742.94;5074391;28;20227;-70
2022/12/24 02:20:35;;;;;;;15.13;2.40;;;;;;;9.64;100.00;97742.41;5075222;28;20635;-70
2022/12/24 02:23:33;;;;;;;6.27;2.30;;;;;;;9.62;100.00;97746.31;5075110;28;20234;-70
2022/12/24 02:26:25;;;;;;;5.57;1.73;;;;;;;9.54;100.00;97746.59;5073941;28;20647;-70
2022/12/24 02:29:21;;;;;;;8.23;1.90;;;;;;;9.57;100.00;97756.78;5074163;28;20200;-70
2022/12/24 02:32:01;;;;;;;9.10;1.90;;;;;;;9.45;100.00;97764.66;5074060;28;20224;-70
2022/12/24 02:34:51;;;;;;;7.67;2.30;;;;;;;9.37;100.00;97767.56;5073952;28;20212;-70
2022/12/24 02:37:24;;;;;;;5.73;1.90;;;;;;;9.37;100.00;97766.78;5074152;28;20196;-70
2022/12/24 02:40:01;;;;;;;7.73;2.03;;;;;;;9.28;100.00;97757.47;5073973;28;20268;-70
2022/12/24 02:42:35;;;;;;;9.47;2.37;;;;;;;9.18;100.00;97751.81;5073838;28;20234;-70
2022/12/24 02:45:12;;;;;;;5.03;2.13;;;;;;;9.09;100.00;97766.41;5074376;28;20193;-70
2022/12/24 02:47:41;;;;;;;6.63;2.20;;;;;;;8.99;100.00;97771.38;5074945;28;20196;-70
2022/12/24 02:50:09;;;;;;;9.33;2.57;;;;;;;8.89;100.00;97776.34;5074886;28;20207;-70
2022/12/24 02:52:38;;;;;;;8.73;2.50;;;;;;;8.94;100.00;97789.75;5074471;28;20232;-70
2022/12/24 02:55:12;;;;;;;10.00;2.50;;;;;;;8.79;100.00;97799.88;5074615;28;20235;-70
2022/12/24 02:58:10;;;;;;;12.87;2.23;;;;;;;8.74;100.00;97802.34;5074769;28;20193;-70
2022/12/24 03:01:15;;;;;;;11.90;2.40;;;;;;;8.61;100.00;97797.13;5065553;28;20563;-70
2022/12/24 03:03:56;;;;;;;8.03;1.83;;;;;;;8.54;100.00;97793.69;5074344;28;20189;-71
2022/12/24 03:06:42;;;;;;;6.93;2.10;;;;;;;8.51;100.00;97794.13;5074557;28;20204;-70
2022/12/24 03:09:27;;;;;;;6.60;1.73;;;;;;;8.48;100.00;97799.84;5073369;28;20199;-70
2022/12/24 03:12:10;;;;;;;7.77;2.43;;;;;;;8.51;100.00;97808.16;5074406;28;20228;-70
2022/12/24 03:14:39;;;;;;;9.13;1.97;;;;;;;8.51;100.00;97808.16;5073596;28;20208;-71
2022/12/24 03:17:06;;;;;;;5.80;1.90;;;;;;;8.48;100.00;97813.91;5074302;28;20212;-70
2022/12/24 03:19:33;;;;;;;8.30;1.87;;;;;;;8.59;100.00;97807.09;5074329;28;20200;-70
2022/12/24 03:22:02;;;;;;;6.97;2.57;;;;;;;8.72;100.00;97802.56;5073850;28;20243;-70
2022/12/24 03:24:28;;;;;;;10.20;2.40;;;;;;;8.96;100.00;97815.03;5073017;28;20200;-70
2022/12/24 03:26:56;;;;;;;8.43;1.73;;;;;;;9.06;100.00;97825.97;5073677;28;20209;-70
2022/12/24 03:29:22;;;;;;;8.23;2.17;;;;;;;9.25;100.00;97826.88;5056456;28;20574;-70
2022/12/24 03:31:52;;;;;;;8.73;1.90;;;;;;;9.41;100.00;97835.09;5074027;28;20236;-70
2022/12/24 03:34:19;;;;;;;8.00;1.90;;;;;;;9.40;100.00;97822.88;5073640;28;20209;-70
2022/12/24 03:36:47;;;;;;;8.23;1.93;;;;;;;9.43;100.00;97816.31;5073991;28;20201;-70
2022/12/24 03:39:13;;;;;;;10.43;2.13;;;;;;;9.43;100.00;97826.91;5073967;28;20203;-71
2022/12/24 03:41:40;;;;;;;9.13;2.30;;;;;;;9.52;100.00;97815.81;5073849;28;20220;-70
2022/12/24 03:44:06;;;;;;;10.23;2.53;;;;;;;9.60;100.00;97838.63;5073836;28;20200;-70
2022/12/24 03:46:32;;;;;;;7.63;2.27;;;;;;;9.58;100.00;97844.13;5073739;28;20205;-70
2022/12/24 03:48:59;;;;;;;9.23;2.27;;;;;;;9.59;100.00;97844.97;5073655;28;20208;-70
2022/12/24 03:51:26;;;;;;;12.03;2.17;;;;;;;9.62;100.00;97837.38;5073384;28;20591;-70
2022/12/24 03:53:53;;;;;;;7.57;2.10;;;;;;;9.65;100.00;97830.81;5073681;28;20200;-70
2022/12/24 03:56:20;;;;;;;8.67;2.20;;;;;;;9.70;100.00;97828.31;5073694;28;20235;-70
2022/12/24 03:58:46;;;;;;;11.70;2.50;;;;;;;9.60;100.00;97823.50;5073739;28;20223;-70
2022/12/24 04:01:13;;;;;;;8.27;2.37;;;;;;;9.54;100.00;97829.69;5073320;28;20228;-70
2022/12/24 04:03:39;;;;;;;8.73;2.10;;;;;;;9.41;100.00;97839.59;5073618;28;20204;-71
2022/12/24 04:06:11;;;;;;;9.93;3.00;;;;;;;9.35;100.00;97833.31;5073602;28;20209;-70
2022/12/24 04:08:38;;;;;;;9.73;2.00;;;;;;;9.32;100.00;97831.09;5073366;28;20569;-70
2022/12/24 04:11:07;;;;;;;8.63;2.00;;;;;;;9.28;100.00;97832.53;5073431;28;20224;-70
2022/12/24 04:13:33;;;;;;;5.87;1.83;;;;;;;9.26;100.00;97833.78;5073463;28;20200;-70
2022/12/24 04:16:02;;;;;;;10.97;2.73;;;;;;;9.36;100.00;97842.06;5073452;28;20225;-71
2022/12/24 04:18:28;;;;;;;9.40;2.37;;;;;;;9.41;100.00;97831.66;5073502;28;20207;-70
2022/12/24 04:20:55;;;;;;;8.17;2.43;;;;;;;9.44;100.00;97821.41;5072958;28;20719;-70
2022/12/24 04:23:22;;;;;;;8.33;2.50;;;;;;;9.36;100.00;97831.47;5073476;28;20192;-71
2022/12/24 04:25:48;;;;;;;8.83;2.27;;;;;;;9.33;100.00;97845.16;5073445;28;20204;-70
2022/12/24 04:28:15;;;;;;;8.13;2.43;;;;;;;9.30;100.00;97849.06;5073392;28;20231;-70
2022/12/24 04:30:43;;;;;;;10.80;2.03;;;;;;;9.24;100.00;97843.81;5073014;28;20216;-70
2022/12/24 04:33:10;;;;;;;10.90;2.60;;;;;;;9.33;100.00;97837.22;5073333;28;20208;-70
2022/12/24 04:35:41;;;;;;;10.57;2.70;;;;;;;9.46;100.00;97839.75;5073201;28;20231;-70
2022/12/24 04:38:09;;;;;;;6.93;2.23;;;;;;;9.42;100.00;97841.22;5072936;28;20205;-70
2022/12/24 04:40:35;;;;;;;9.27;2.03;;;;;;;9.33;100.00;97842.53;5073160;28;20204;-70
2022/12/24 04:43:02;;;;;;;8.73;2.20;;;;;;;9.41;100.00;97844.91;5073817;28;20209;-70
2022/12/24 04:45:28;;;;;;;10.33;2.10;;;;;;;9.36;100.00;97847.38;5073118;28;20197;-70
2022/12/24 04:47:54;;;;;;;8.77;2.33;;;;;;;9.41;100.00;97863.47;5073008;28;20219;-70
2022/12/24 04:50:21;;;;;;;11.23;2.40;;;;;;;9.29;100.00;97852.75;5073139;28;20212;-71
2022/12/24 04:52:47;;;;;;;10.93;2.30;;;;;;;9.23;100.00;97858.09;5072985;28;20231;-70
2022/12/24 04:55:13;;;;;;;10.73;2.40;;;;;;;9.22;100.00;97851.97;5073086;28;20225;-71
2022/12/24 04:57:40;;;;;;;8.93;2.43;;;;;;;9.27;100.00;97860.09;5073173;28;20211;-70
2022/12/24 05:00:09;;;;;;;9.57;2.50;;;;;;;9.13;100.00;97865.69;5075829;28;20207;-70
2022/12/24 05:02:35;;;;;;;9.13;2.20;;;;;;;9.13;100.00;97866.53;5075717;28;20229;-71
2022/12/24 05:05:02;;;;;;;9.50;2.37;;;;;;;9.20;100.00;97863.84;5076858;28;20200;-70
2022/12/24 05:07:28;;;;;;;8.33;2.10;;;;;;;9.13;100.00;97858.56;5076755;28;20227;-70
2022/12/24 05:09:54;;;;;;;9.43;2.47;;;;;;;9.02;100.00;97856.63;5076450;28;20219;-70
2022/12/24 05:12:21;;;;;;;11.07;2.20;;;;;;;8.90;100.00;97853.00;5076412;28;20230;-70
2022/12/24 05:14:47;;;;;;;7.13;1.70;;;;;;;8.93;100.00;97857.06;5076385;28;20216;-70
2022/12/24 05:17:13;;;;;;;11.80;2.27;;;;;;;8.96;100.00;97851.34;5076470;28;20204;-70
2022/12/24 05:19:40;;;;;;;10.50;2.43;;;;;;;9.02;100.00;97866.41;5076440;28;20205;-71
2022/12/24 05:27:34;;;;;;;10.80;2.10;;;;;;;9.09;100.00;97867.19;5076453;28;20192;-71
2022/12/24 05:30:00;;;;;;;11.53;2.30;;;;;;;9.04;100.00;97870.47;5076386;28;20204;-70
2022/12/24 05:32:27;;;;;;;8.67;2.27;;;;;;;9.07;100.00;97870.03;5076315;28;20227;-70
2022/12/24 05:34:53;;;;;;;7.60;2.00;;;;;;;9.16;100.00;97868.75;5076139;28;20216;-70
2022/12/24 05:37:20;;;;;;;8.53;2.47;;;;;;;9.05;100.00;97865.97;5075860;28;20691;-71
2022/12/24 05:39:46;;;;;;;5.93;1.50;;;;;;;9.03;100.00;97860.06;5076146;28;20213;-70
2022/12/24 05:42:12;;;;;;;9.73;1.87;;;;;;;9.05;100.00;97869.44;5076030;28;20231;-70
2022/12/24 05:44:39;;;;;;;9.27;2.30;;;;;;;9.19;100.00;97872.81;5076057;28;20200;-71
2022/12/24 05:47:05;;;;;;;7.40;2.20;;;;;;;9.22;100.00;97870.53;5075649;28;20667;-70
2022/12/24 05:49:31;;;;;;;12.63;2.07;;;;;;;9.27;100.00;97873.38;5076453;28;20558;-71
2022/12/24 05:51:58;;;;;;;7.57;2.40;;;;;;;9.28;100.00;97866.22;5075601;28;20711;-70
2022/12/24 05:54:24;;;;;;;8.30;2.17;;;;;;;9.24;100.00;97871.13;5075928;28;20215;-70
2022/12/24 05:56:50;;;;;;;7.40;2.00;;;;;;;9.27;100.00;97880.50;5075768;28;20220;-70
2022/12/24 05:59:17;;;;;;;9.23;2.13;;;;;;;9.15;100.00;97879.56;5075810;28;20208;-71
2022/12/24 06:01:45;;;;;;;9.33;2.10;;;;;;;9.14;100.00;97885.91;5075719;28;20232;-70
2022/12/24 06:04:12;;;;;;;6.73;2.10;;;;;;;9.13;100.00;97887.75;5075694;28;20205;-70
2022/12/24 06:06:38;;;;;;;8.27;2.50;;;;;;;9.07;100.00;97875.34;5075586;28;20330;-70
2022/12/24 06:09:05;;;;;;;8.80;2.50;;;;;;;9.13;100.00;97879.78;5075573;28;20204;-70
2022/12/24 06:11:31;;;;;;;10.77;2.53;;;;;;;9.20;100.00;97893.84;5075058;28;20220;-70
2022/12/24 06:13:58;;;;;;;8.90;2.47;;;;;;;9.10;100.00;97896.13;5075128;28;20215;-70
2022/12/24 06:16:25;;;;;;;11.70;2.30;;;;;;;8.98;100.00;97899.66;5075024;28;20224;-71
2022/12/24 06:18:52;;;;;;;7.67;2.47;;;;;;;8.99;100.00;97890.69;5075389;28;20204;-70
2022/12/24 06:21:19;;;;;;;10.03;2.27;;;;;;;8.99;100.00;97907.41;5074805;28;20243;-70
2022/12/24 06:23:46;;;;;;;9.20;2.30;;;;;;;9.02;100.00;97898.22;5075104;28;20222;-71
2022/12/24 06:26:15;;;;;;;15.37;2.47;;;;;;;8.97;100.00;97901.50;5075061;28;20200;-71
2022/12/24 06:28:42;;;;;;;11.77;2.30;;;;;;;8.94;100.00;97899.28;5075321;28;20205;-70
2022/12/24 06:31:13;;;;;;;6.63;1.93;;;;;;;8.79;100.00;97903.22;5074934;28;20228;-70
2022/12/24 06:33:40;;;;;;;9.00;2.80;;;;;;;8.71;100.00;97906.13;5075253;28;20216;-71
2022/12/24 06:36:08;;;;;;;8.57;2.27;;;;;;;8.69;100.00;97913.47;5074866;28;20236;-71
2022/12/24 06:38:35;;;;;;;6.40;1.93;;;;;;;8.53;100.00;97920.06;5074645;28;20208;-71
2022/12/24 06:41:06;;;;;;;8.57;2.07;;;;;;;8.42;100.00;97925.19;5074590;28;20247;-71
2022/12/24 06:43:33;;;;;;;10.73;2.30;;;;;;;8.36;100.00;97918.06;5075003;28;20618;-70
2022/12/24 06:46:00;;;;;;;10.17;2.67;;;;;;;8.31;100.00;97931.13;5074823;28;20201;-70
2022/12/24 06:48:27;;;;;;;8.47;2.37;;;;;;;8.30;100.00;97940.91;5074802;28;20207;-71
2022/12/24 06:50:53;;;;;;;8.00;2.00;;;;;;;8.28;100.00;97948.22;5074725;28;20224;-70
2022/12/24 06:53:19;;;;;;;7.80;2.40;;;;;;;8.30;100.00;97946.22;5074741;28;20208;-71
2022/12/24 06:55:46;;;;;;;9.03;2.20;;;;;;;8.33;100.00;97955.56;5074469;28;20232;-70
2022/12/24 06:58:12;;;;;;;12.27;2.60;;;;;;;8.37;100.00;97962.88;5074677;28;20208;-71
2022/12/24 07:00:38;;;;;;;7.80;2.20;;;;;;;8.38;100.00;97955.75;5074456;28;20205;-71
2022/12/24 07:03:05;;;;;;;6.47;2.13;;;;;;;8.39;100.00;97954.72;5074447;28;20201;-70
2022/12/24 07:05:31;;;;;;;8.80;2.27;;;;;;;8.43;100.00;97962.06;5074431;28;20196;-70
2022/12/24 07:07:58;;;;;;;7.63;1.90;;;;;;;8.43;100.00;97954.13;5074351;28;20215;-71
2022/12/24 07:10:24;;;;;;;8.63;2.33;;;;;;;8.47;100.00;97957.97;5074024;28;20686;-70
2022/12/24 07:12:50;;;;;;;6.90;2.17;;;;;;;8.42;100.00;97964.94;5074222;28;20224;-71
2022/12/24 07:15:17;;;;;;;8.53;2.10;;;;;;;8.43;100.00;97971.84;5074168;28;20208;-71
2022/12/24 07:17:44;;;;;;;7.47;1.97;;;;;;;8.42;100.00;97984.25;5074309;28;20205;-71
2022/12/24 07:20:13;;;;;;;11.23;2.23;;;;;;;8.36;100.00;97976.31;5074242;28;20208;-71
2022/12/24 07:22:40;;;;;;;6.97;1.83;;;;;;;8.36;100.00;97976.31;5073753;28;20594;-71
2022/12/24 07:25:06;;;;;;;7.17;2.03;;;;;;;8.33;100.00;97982.06;5073899;28;20578;-71
2022/12/24 07:27:33;;;;;;;8.70;2.40;;;;;;;8.30;100.00;97991.22;5073734;28;20205;-71
2022/12/24 07:29:59;;;;;;;8.03;2.20;;;;;;;8.23;100.00;97998.34;5073905;28;20201;-71
2022/12/24 07:32:25;;;;;;;8.17;2.10;;;;;;;8.27;100.00;98001.41;5073554;28;20726;-70
2022/12/24 07:34:52;;;;;;;8.87;2.20;;;;;;;8.23;100.00;98021.41;5074450;28;20536;-70
2022/12/24 07:37:18;;;;;;;10.20;2.33;;;;;;;8.19;100.00;98013.00;5073782;28;20217;-70
2022/12/24 07:39:45;;;;;;;10.00;2.43;;;;;;;8.22;100.00;98003.84;5073901;28;20211;-71
2022/12/24 07:42:11;;;;;;;6.73;2.20;;;;;;;8.20;100.00;98005.88;5073759;28;20229;-70
2022/12/24 07:44:38;;;;;;;10.13;2.27;;;;;;;8.22;100.00;98009.16;5073479;28;20325;-70
2022/12/24 07:47:04;;;;;;;10.20;2.30;;;;;;;8.25;100.00;98006.09;5073532;28;20205;-71
2022/12/24 07:49:30;;;;;;;10.10;2.30;;;;;;;8.25;100.00;98014.03;5073265;28;20205;-70
2022/12/24 07:51:57;;;;;;;8.07;2.47;;;;;;;8.28;100.00;98025.03;5073502;28;20597;-71
2022/12/24 07:54:23;;;;;;;11.53;2.53;;;;;;;8.32;100.00;98013.03;5073485;28;20205;-70
2022/12/24 07:56:49;;;;;;;8.43;2.10;;;;;;;8.30;100.00;98014.25;5073198;28;20562;-71
2022/12/24 07:59:16;;;;;;;9.13;2.17;;;;;;;8.35;100.00;98017.09;5073258;28;20686;-71
2022/12/24 08:01:42;;;;;;;6.57;2.00;;;;;;;8.37;100.00;98021.16;5073235;28;20708;-71
2022/12/24 08:04:09;;;;;;;8.47;2.13;;;;;;;8.41;100.00;98018.94;5073513;28;20299;-70
2022/12/24 08:06:35;;;;;;;9.37;2.03;;;;;;;8.49;100.00;98018.69;5073409;28;20200;-70
2022/12/24 08:09:02;;;;;;;10.47;3.07;;;;;;;8.68;100.00;98028.44;5073086;28;20204;-71
2022/12/24 08:11:28;;;;;;;8.93;2.40;;;;;;;8.71;100.00;98022.72;5073351;28;20231;-71
2022/12/24 08:13:54;;;;;;;12.43;2.73;;;;;;;8.79;100.00;98019.84;5073486;28;20204;-70
2022/12/24 08:16:21;;;;;;;5.67;1.90;;;;;;;8.84;100.00;98031.47;5073037;28;20221;-71
2022/12/24 08:18:47;;;;;;;9.10;2.50;;;;;;;8.87;100.00;98032.91;5073360;28;20218;-70
2022/12/24 08:21:14;;;;;;;7.10;1.97;;;;;;;8.79;100.00;98033.13;5073188;28;20236;-70
2022/12/24 08:23:41;;;;;;;7.57;2.37;;;;;;;8.78;100.00;98028.84;5073392;28;20197;-70
2022/12/24 08:26:09;;;;;;;9.30;2.00;;;;;;;8.72;100.00;98034.94;5073167;28;20211;-71
2022/12/24 08:28:36;;;;;;;9.03;2.30;;;;;;;8.87;100.00;98036.34;5073275;28;20201;-71
2022/12/24 08:31:03;;;;;;;8.23;2.23;;;;;;;8.99;100.00;98047.13;5073150;28;20231;-70
2022/12/24 08:33:29;;;;;;;13.40;2.40;;;;;;;9.16;100.00;98056.25;5073221;28;20204;-71
2022/12/24 08:35:56;;;;;;;8.10;2.40;;;;;;;9.22;100.00;98050.09;5076535;28;20717;-70
2022/12/24 08:38:23;;;;;;;6.93;1.93;;;;;;;9.26;100.00;98046.00;5077288;28;20204;-70
2022/12/24 08:40:50;;;;;;;10.13;2.43;;;;;;;9.15;100.00;98051.97;5076959;28;20211;-70
2022/12/24 08:43:17;;;;;;;8.83;2.77;;;;;;;9.11;100.00;98062.19;5077025;28;20204;-71
2022/12/24 08:45:44;;;;;;;9.03;2.30;;;;;;;9.09;100.00;98066.88;5077028;28;20219;-70
2022/12/24 08:48:10;;;;;;;8.47;2.47;;;;;;;9.04;100.00;98060.56;5076766;28;20210;-70
2022/12/24 08:50:41;;;;;;;9.87;2.23;;;;;;;8.93;100.00;98071.81;5076606;28;20205;-70
2022/12/24 08:53:09;;;;;;;8.93;2.57;;;;;;;8.97;100.00;98073.81;5076969;28;20212;-70
2022/12/24 08:55:35;;;;;;;7.80;2.43;;;;;;;8.95;100.00;98077.72;5076835;28;20223;-70
2022/12/24 08:58:02;;;;;;;7.17;1.97;;;;;;;8.98;100.00;98078.13;5076627;28;20207;-70
2022/12/24 09:00:28;;;;;;;8.80;2.23;;;;;;;8.93;100.00;98077.94;5076715;28;20204;-70
2022/12/24 09:02:56;;;;;;;10.37;2.20;;;;;;;8.98;100.00;98078.13;5076693;28;20200;-71
2022/12/24 09:05:22;;;;;;;9.03;2.43;;;;;;;9.00;100.00;98080.59;5076677;28;20204;-70
2022/12/24 09:07:49;;;;;;;7.90;2.40;;;;;;;8.96;100.00;98082.03;5076349;28;20209;-70
2022/12/24 09:10:15;;;;;;;8.70;2.80;;;;;;;9.00;100.00;98091.19;5076696;28;20200;-71
2022/12/24 09:12:42;;;;;;;8.83;2.53;;;;;;;9.02;100.00;98095.25;5076348;28;20240;-70
2022/12/24 09:15:09;;;;;;;8.10;2.20;;;;;;;9.14;100.00;98098.09;5076084;28;20559;-70
2022/12/24 09:17:36;;;;;;;10.97;2.53;;;;;;;9.21;100.00;98094.38;5076409;28;20228;-70
2022/12/24 09:20:04;;;;;;;7.43;2.37;;;;;;;9.17;100.00;98097.66;5076375;28;20205;-70
2022/12/24 09:22:30;;;;;;;9.43;2.53;;;;;;;9.25;100.00;98108.03;5075797;28;20236;-70
2022/12/24 09:24:57;;;;;;;9.57;2.07;;;;;;;9.33;100.00;98102.50;5075869;28;20216;-71
2022/12/24 09:27:23;;;;;;;9.67;2.80;;;;;;;9.37;100.00;98109.03;5076273;28;20203;-70
2022/12/24 09:29:50;;;;;;;11.90;2.30;;;;;;;9.57;100.00;98099.13;5076031;28;20209;-70
2022/12/24 09:32:16;;;;;;;11.23;2.80;;;;;;;9.61;100.00;98108.31;5076187;28;20224;-70
2022/12/24 09:34:42;;;;;;;9.30;2.40;;;;;;;9.75;100.00;98123.13;5076169;28;20218;-70
2022/12/24 09:37:09;;;;;;;8.97;2.80;;;;;;;9.79;100.00;98116.38;5076818;28;20231;-70
2022/12/24 09:39:35;;;;;;;8.63;2.10;;;;;;;9.81;100.00;98117.78;5076082;28;20200;-70
2022/12/24 09:42:16;;;;;;;8.77;2.20;;;;;;;9.93;100.00;98113.44;5075770;28;20227;-71
2022/12/24 09:44:49;;;;;;;14.47;2.77;;;;;;;9.98;100.00;98113.63;5075412;28;20200;-70
2022/12/24 09:47:53;;;;;;;8.43;2.63;;;;;;;9.95;100.00;98121.19;5074318;28;20624;-71
2022/12/24 09:50:25;;;;;;;6.47;2.10;;;;;;;9.87;100.00;98113.50;5054429;28;20200;-70
2022/12/24 09:52:52;;;;;;;8.03;2.23;;;;;;;9.87;100.00;98106.31;5075425;28;20239;-70
2022/12/24 09:55:36;;;;;;;10.57;2.53;;;;;;;9.91;100.00;98107.53;5075569;28;20671;-70
2022/12/24 09:58:05;;;;;;;7.33;2.40;;;;;;;10.03;100.00;98111.13;5075043;28;20694;-70
2022/12/24 10:00:37;;;;;;;9.10;2.60;;;;;;;10.09;100.00;98114.81;5075515;28;20200;-70
2022/12/24 10:03:15;;;;;;;6.03;2.50;;;;;;;10.07;100.00;98114.19;5075633;28;20189;-70
2022/12/24 10:05:51;;;;;;;10.87;2.70;;;;;;;10.20;100.00;98111.47;5075647;28;20204;-70
2022/12/24 10:08:22;;;;;;;9.33;2.30;;;;;;;10.31;100.00;98113.41;5075637;28;20192;-70
2022/12/24 10:10:53;;;;;;;13.57;2.73;;;;;;;10.13;100.00;98110.69;5073910;28;20643;-70
2022/12/24 10:13:32;;;;;;;10.23;2.80;;;;;;;10.18;100.00;98111.66;5075483;28;20229;-70
2022/12/24 10:16:23;;;;;;;10.80;3.20;;;;;;;10.27;100.00;98109.59;5075106;28;20196;-70
2022/12/24 10:19:10;;;;;;;7.93;2.27;;;;;;;10.29;100.00;98112.81;5075325;28;20215;-70
2022/12/24 10:21:47;;;;;;;7.97;2.60;;;;;;;10.22;100.00;98112.03;5074932;28;20324;-71
2022/12/24 10:24:21;;;;;;;11.80;2.80;;;;;;;10.32;100.00;98120.38;5075426;28;20184;-70
2022/12/24 10:27:05;;;;;;;8.97;2.50;;;;;;;10.12;100.00;98119.69;5075256;28;20583;-70
2022/12/24 10:29:40;;;;;;;11.43;2.90;;;;;;;10.02;100.00;98122.78;5075097;28;20192;-70
2022/12/24 10:32:09;;;;;;;12.57;2.90;;;;;;;10.01;100.00;98121.13;5075077;28;20232;-70
2022/12/24 10:34:42;;;;;;;9.90;2.83;;;;;;;9.99;100.00;98141.81;5074649;28;20699;-70
2022/12/24 10:37:22;;;;;;;9.10;2.53;;;;;;;9.99;100.00;98139.16;5074850;28;20219;-70
2022/12/24 10:39:48;;;;;;;9.40;2.50;;;;;;;10.00;100.00;98138.13;5074723;28;20192;-70
2022/12/24 10:42:16;;;;;;;9.43;2.73;;;;;;;9.98;100.00;98136.69;5074251;28;20240;-70
2022/12/24 10:44:47;;;;;;;8.50;2.87;;;;;;;9.95;100.00;98119.34;5074822;28;20204;-70
2022/12/24 10:47:14;;;;;;;9.10;3.00;;;;;;;9.95;100.00;98121.19;5074804;28;20185;-70
2022/12/24 10:49:47;;;;;;;8.47;2.43;;;;;;;9.98;100.00;98131.38;5073038;28;20216;-70
2022/12/24 10:52:28;;;;;;;11.17;2.87;;;;;;;9.97;100.00;98133.25;5074453;28;20246;-71
2022/12/24 10:55:22;;;;;;;9.93;2.40;;;;;;;10.19;100.00;98133.75;5074605;28;20197;-70
2022/12/24 10:58:16;;;;;;;8.20;2.20;;;;;;;10.32;100.00;98138.97;5073701;28;20240;-70
2022/12/24 11:00:49;;;;;;;10.37;2.77;;;;;;;10.30;100.00;98141.03;5074449;28;20255;-71
2022/12/24 11:03:18;;;;;;;9.50;2.57;;;;;;;10.35;100.00;98135.88;5074086;28;20188;-70
2022/12/24 11:05:44;;;;;;;7.60;2.40;;;;;;;10.46;100.00;98132.53;5073868;28;20207;-70
2022/12/24 11:08:13;;;;;;;8.03;2.33;;;;;;;10.52;100.00;98126.34;5074165;28;20208;-70
2022/12/24 11:10:45;;;;;;;10.80;2.80;;;;;;;10.53;100.00;98127.97;5074151;28;20200;-70
2022/12/24 11:13:30;;;;;;;10.10;2.53;;;;;;;10.61;100.00;98125.03;5074279;28;20193;-71
2022/12/24 11:16:07;;;;;;;7.60;2.40;;;;;;;10.59;100.00;98132.44;5073836;28;20195;-70
2022/12/24 11:18:37;;;;;;;8.53;2.57;;;;;;;10.54;100.00;98127.75;5073949;28;20185;-70
2022/12/24 11:21:05;;;;;;;7.10;2.00;;;;;;;10.54;100.00;98134.94;5072445;28;20232;-70
2022/12/24 11:23:32;;;;;;;8.50;2.30;;;;;;;10.48;100.00;98133.13;5073888;28;20188;-70
2022/12/24 11:25:59;;;;;;;6.70;2.30;;;;;;;10.48;100.00;98136.59;5073834;28;20279;-70
2022/12/24 11:28:32;;;;;;;10.10;2.30;;;;;;;10.53;100.00;98136.78;5073605;28;20201;-70
2022/12/24 11:31:19;;;;;;;8.50;2.57;;;;;;;10.44;100.00;98134.59;5073394;28;20275;-70
2022/12/24 11:33:52;;;;;;;9.93;2.40;;;;;;;10.35;100.00;98138.53;5073426;28;20212;-70
2022/12/24 11:36:23;;;;;;;11.37;2.67;;;;;;;10.37;100.00;98136.50;5073223;28;20243;-70
2022/12/24 11:38:58;;;;;;;11.17;2.40;;;;;;;10.33;100.00;98144.06;5072992;28;20197;-70
2022/12/24 11:41:26;;;;;;;10.90;2.63;;;;;;;10.33;100.00;98128.09;5073446;28;20225;-70
2022/12/24 11:44:02;;;;;;;8.10;2.70;;;;;;;10.32;100.00;98131.81;5073646;28;20211;-70
2022/12/24 11:46:28;;;;;;;9.67;2.93;;;;;;;10.30;100.00;98127.72;5073521;28;20284;-70
2022/12/24 11:49:17;;;;;;;11.97;2.97;;;;;;;10.45;100.00;98126.41;5073160;28;20668;-71
2022/12/24 11:51:58;;;;;;;7.87;2.27;;;;;;;10.61;100.00;98123.22;5073327;28;20221;-70